Time;durP1;ratioP1;P1;durP2;ratioP2;P2;SDS_P1;SDS_P2;PMS_P1;PMS_P2;Temp;Humidity;BMP_temperature;BMP_pressure;BME280_temperature;BME280_humidity;BME280_pressure;Samples;Min_cycle;Max_cycle;Signal;HPM_P1;HPM_P2
2024/02/24 00:02:16;;;;;;;2.47;2.28;;;6.40;89.10;;;;;;4985590;28;20432;-92
2024/02/24 00:04:42;;;;;;;3.25;3.05;;;6.30;90.30;;;;;;4982176;28;20374;-91
2024/02/24 00:07:07;;;;;;;2.20;1.30;;;6.10;92.10;;;;;;4979837;28;20041;-91
2024/02/24 00:09:34;;;;;;;2.85;1.48;;;6.00;92.50;;;;;;4981022;28;20031;-93
2024/02/24 00:12:04;;;;;;;2.97;1.50;;;6.00;92.10;;;;;;4980286;28;20082;-92
2024/02/24 00:14:30;;;;;;;4.45;1.92;;;5.90;92.70;;;;;;4985704;28;20035;-92
2024/02/24 00:16:56;;;;;;;1.85;1.40;;;5.90;92.30;;;;;;4988778;28;20094;-91
2024/02/24 00:19:22;;;;;;;2.97;1.27;;;5.90;92.00;;;;;;4976669;28;20068;-91
2024/02/24 00:21:50;;;;;;;2.95;2.50;;;5.90;92.50;;;;;;4983652;28;20144;-92
2024/02/24 00:24:16;;;;;;;2.30;2.10;;;5.80;93.00;;;;;;4982715;28;20868;-92
2024/02/24 00:26:42;;;;;;;4.55;2.67;;;5.80;93.50;;;;;;4981947;28;20018;-92
2024/02/24 00:29:08;;;;;;;5.68;5.18;;;5.80;93.70;;;;;;4979893;28;20105;-91
2024/02/24 00:31:33;;;;;;;7.93;4.57;;;5.70;94.20;;;;;;4974421;28;20038;-91
2024/02/24 00:34:01;;;;;;;5.80;2.58;;;5.80;94.40;;;;;;4978306;28;20034;-92
2024/02/24 00:36:27;;;;;;;5.38;3.25;;;5.80;94.20;;;;;;4975275;28;20034;-94
2024/02/24 00:38:53;;;;;;;6.18;2.80;;;5.90;93.90;;;;;;4981009;28;20031;-91
2024/02/24 00:41:20;;;;;;;1.85;1.48;;;5.90;94.00;;;;;;4980047;28;20023;-92
2024/02/24 00:43:45;;;;;;;2.35;1.50;;;5.90;93.30;;;;;;4975107;28;20063;-92
2024/02/24 00:46:11;;;;;;;3.53;1.88;;;5.90;93.40;;;;;;4968533;28;20050;-92
2024/02/24 00:48:37;;;;;;;2.53;1.95;;;5.90;93.80;;;;;;4976235;28;20034;-92
2024/02/24 00:51:03;;;;;;;4.18;1.67;;;5.80;94.00;;;;;;4984653;28;20025;-92
2024/02/24 00:53:29;;;;;;;2.85;1.48;;;5.80;95.30;;;;;;4988897;28;20041;-92
2024/02/24 00:55:54;;;;;;;1.98;1.63;;;5.80;96.80;;;;;;4977050;28;20046;-92
2024/02/24 00:58:20;;;;;;;2.50;1.40;;;5.90;97.30;;;;;;4979805;28;20118;-92
2024/02/24 01:00:46;;;;;;;2.13;1.23;;;5.90;97.60;;;;;;4977829;28;20031;-95
2024/02/24 01:03:13;;;;;;;3.50;1.73;;;5.90;97.70;;;;;;4982938;28;20027;-93
2024/02/24 01:05:41;;;;;;;3.13;1.45;;;5.90;99.00;;;;;;4989228;28;20053;-93
2024/02/24 01:08:07;;;;;;;1.75;1.20;;;5.90;99.90;;;;;;4981067;28;20034;-93
2024/02/24 01:10:33;;;;;;;1.55;1.35;;;5.80;99.90;;;;;;5074222;28;20486;-93
2024/02/24 01:13:00;;;;;;;1.75;1.55;;;5.70;99.90;;;;;;5037617;28;20020;-92
2024/02/24 01:15:27;;;;;;;1.27;0.68;;;5.60;99.90;;;;;;5019272;28;20022;-92
2024/02/24 01:17:55;;;;;;;1.85;1.02;;;5.50;99.90;;;;;;4994840;28;20108;-93
2024/02/24 01:20:31;;;;;;;1.25;1.00;;;5.40;99.90;;;;;;4988035;28;20481;-92
2024/02/24 01:22:59;;;;;;;1.17;1.08;;;5.30;99.90;;;;;;5021566;28;20032;-92
2024/02/24 01:25:26;;;;;;;1.15;1.05;;;5.20;99.90;;;;;;4979880;28;20038;-93
2024/02/24 01:27:55;;;;;;;1.30;1.20;;;5.10;99.90;;;;;;4980459;28;20027;-93
2024/02/24 01:30:22;;;;;;;2.67;1.13;;;5.10;99.90;;;;;;4983891;28;20111;-92
2024/02/24 01:32:48;;;;;;;1.38;0.95;;;5.10;99.90;;;;;;5028519;28;20021;-93
2024/02/24 01:35:17;;;;;;;2.85;1.00;;;5.10;99.90;;;;;;5047941;28;20038;-93
2024/02/24 01:37:43;;;;;;;1.10;0.95;;;5.10;99.90;;;;;;4973529;28;20057;-94
2024/02/24 01:40:09;;;;;;;1.08;1.05;;;5.10;99.90;;;;;;4996609;28;20477;-94
2024/02/24 01:42:34;;;;;;;2.00;1.10;;;5.00;99.90;;;;;;5007666;28;20023;-92
2024/02/24 01:45:01;;;;;;;1.77;0.73;;;5.00;99.90;;;;;;4992357;28;20031;-91
2024/02/24 01:47:27;;;;;;;1.40;1.23;;;4.90;99.90;;;;;;4987956;28;20030;-93
2024/02/24 01:49:55;;;;;;;1.05;0.98;;;4.90;99.90;;;;;;4983658;28;20038;-93
2024/02/24 01:52:21;;;;;;;1.48;0.77;;;4.90;99.90;;;;;;4989105;28;20034;-93
2024/02/24 01:54:48;;;;;;;1.10;1.00;;;4.80;99.90;;;;;;4981422;28;20031;-94
2024/02/24 01:57:14;;;;;;;1.17;1.00;;;4.70;99.90;;;;;;4990506;28;20027;-94
2024/02/24 01:59:40;;;;;;;1.67;1.08;;;4.70;99.90;;;;;;4994023;28;20033;-93
2024/02/24 02:02:09;;;;;;;1.38;1.30;;;4.70;99.90;;;;;;4994634;28;20025;-92
2024/02/24 02:04:34;;;;;;;1.05;0.82;;;4.70;99.90;;;;;;4978738;28;20038;-92
2024/02/24 02:07:00;;;;;;;1.33;0.75;;;4.70;99.90;;;;;;4973526;28;20027;-93
2024/02/24 02:09:26;;;;;;;2.25;1.40;;;4.70;99.90;;;;;;4994592;28;20021;-92
2024/02/24 02:11:53;;;;;;;1.08;1.08;;;4.70;99.90;;;;;;5033392;28;20033;-92
2024/02/24 02:14:19;;;;;;;0.98;0.90;;;4.70;99.90;;;;;;4999090;28;20037;-93
2024/02/24 02:16:45;;;;;;;1.85;1.75;;;4.70;99.90;;;;;;4987831;28;20047;-92
2024/02/24 02:19:10;;;;;;;1.38;1.27;;;4.70;99.90;;;;;;4992992;28;20040;-92
2024/02/24 02:21:42;;;;;;;1.17;1.08;;;4.60;99.90;;;;;;4965491;28;20035;-94
2024/02/24 02:24:09;;;;;;;1.00;0.73;;;4.60;99.90;;;;;;4978571;28;20019;-92
2024/02/24 02:26:35;;;;;;;0.95;0.88;;;4.60;99.90;;;;;;4979438;28;20031;-93
2024/02/24 02:29:01;;;;;;;1.10;1.00;;;4.70;99.90;;;;;;5011559;28;20021;-93
2024/02/24 02:31:26;;;;;;;1.10;1.10;;;4.70;99.90;;;;;;4989244;28;20109;-92
2024/02/24 02:33:52;;;;;;;0.93;0.93;;;4.70;99.90;;;;;;5032654;28;20029;-95
2024/02/24 02:36:18;;;;;;;6.63;0.90;;;4.70;99.90;;;;;;5017516;28;20056;-93
2024/02/24 02:38:49;;;;;;;1.58;1.48;;;4.70;99.90;;;;;;4974330;28;20035;-92
2024/02/24 02:41:15;;;;;;;1.63;1.10;;;4.70;99.90;;;;;;4984155;28;20055;-93
2024/02/24 02:43:41;;;;;;;2.08;1.50;;;4.70;99.90;;;;;;4986410;28;20085;-93
2024/02/24 02:46:07;;;;;;;2.15;1.30;;;4.70;99.90;;;;;;4981999;28;20057;-94
2024/02/24 02:48:33;;;;;;;1.02;1.02;;;4.70;99.90;;;;;;5014107;28;20100;-92
2024/02/24 02:50:58;;;;;;;1.50;1.20;;;4.80;99.90;;;;;;5037173;28;20038;-93
2024/02/24 02:53:24;;;;;;;2.95;2.75;;;4.70;99.90;;;;;;4978027;28;20131;-92
2024/02/24 02:55:50;;;;;;;1.20;1.10;;;4.70;99.90;;;;;;4987814;28;20100;-93
2024/02/24 02:58:15;;;;;;;0.63;0.63;;;4.60;99.90;;;;;;4984946;28;20057;-93
2024/02/24 03:00:42;;;;;;;1.08;0.98;;;4.60;99.90;;;;;;4982278;28;20043;-92
2024/02/24 03:03:08;;;;;;;1.38;1.27;;;4.50;99.90;;;;;;5036806;28;20084;-95
2024/02/24 03:05:34;;;;;;;3.38;1.13;;;4.50;99.90;;;;;;4993267;28;20027;-92
2024/02/24 03:08:00;;;;;;;1.20;1.08;;;4.50;99.90;;;;;;5001513;28;20207;-93
2024/02/24 03:10:26;;;;;;;2.47;1.00;;;4.50;99.90;;;;;;5010044;28;20031;-92
2024/02/24 03:12:55;;;;;;;0.93;0.93;;;4.60;99.90;;;;;;4980410;28;20034;-93
2024/02/24 03:15:21;;;;;;;0.70;0.55;;;4.60;99.90;;;;;;4999974;28;20028;-92
2024/02/24 03:17:46;;;;;;;2.50;1.15;;;4.50;99.90;;;;;;4992257;28;20033;-95
2024/02/24 03:20:12;;;;;;;1.45;1.42;;;4.60;99.90;;;;;;4986165;28;20039;-94
2024/02/24 03:22:38;;;;;;;1.70;1.60;;;4.60;99.90;;;;;;5024856;28;20113;-93
2024/02/24 03:25:04;;;;;;;1.15;1.00;;;4.60;99.90;;;;;;4989407;28;20422;-93
2024/02/24 03:27:30;;;;;;;1.67;1.58;;;4.50;99.90;;;;;;5008542;28;20032;-93
2024/02/24 03:29:56;;;;;;;1.60;1.50;;;4.50;99.90;;;;;;5015315;28;20372;-92
2024/02/24 03:32:22;;;;;;;2.10;2.00;;;4.50;99.90;;;;;;4986679;28;20026;-93
2024/02/24 03:34:47;;;;;;;1.70;1.60;;;4.40;99.90;;;;;;4976516;28;20050;-93
2024/02/24 03:37:13;;;;;;;1.67;1.58;;;4.40;99.90;;;;;;4982187;28;20098;-92
2024/02/24 03:39:39;;;;;;;1.35;1.00;;;4.30;99.90;;;;;;5017200;28;20097;-93
2024/02/24 03:42:05;;;;;;;2.08;1.02;;;4.40;99.90;;;;;;4988411;28;20046;-92
2024/02/24 03:44:31;;;;;;;2.60;1.15;;;4.30;99.90;;;;;;4976852;28;20035;-93
2024/02/24 03:46:57;;;;;;;1.50;1.00;;;4.30;99.90;;;;;;4973043;28;20044;-93
2024/02/24 03:49:23;;;;;;;1.42;1.33;;;4.30;99.90;;;;;;4980917;28;20109;-93
2024/02/24 03:51:48;;;;;;;1.30;1.25;;;4.30;99.90;;;;;;5052398;28;20032;-92
2024/02/24 03:54:14;;;;;;;2.22;1.25;;;4.30;99.90;;;;;;4985398;28;20103;-93
2024/02/24 03:56:40;;;;;;;1.48;1.40;;;4.20;99.90;;;;;;4976449;28;20093;-93
2024/02/24 03:59:06;;;;;;;1.27;1.17;;;4.20;99.90;;;;;;4986513;28;20508;-92
2024/02/24 04:01:32;;;;;;;1.70;1.60;;;4.20;99.90;;;;;;4980435;28;20066;-92
2024/02/24 04:03:58;;;;;;;1.73;1.63;;;4.20;99.90;;;;;;4982616;28;20027;-92
2024/02/24 04:06:23;;;;;;;1.80;1.20;;;4.20;99.90;;;;;;4997934;28;20022;-92
2024/02/24 04:08:49;;;;;;;1.70;1.60;;;4.20;99.90;;;;;;4984242;28;20047;-94
2024/02/24 04:11:15;;;;;;;1.70;1.55;;;4.10;99.90;;;;;;4980571;28;20045;-91
2024/02/24 04:13:43;;;;;;;2.63;2.17;;;4.10;99.90;;;;;;4977857;28;20023;-93
2024/02/24 04:16:09;;;;;;;1.15;1.10;;;4.10;99.90;;;;;;4970778;28;20027;-93
2024/02/24 04:18:35;;;;;;;2.88;1.77;;;4.10;99.90;;;;;;4987891;28;20045;-92
2024/02/24 04:21:01;;;;;;;1.02;0.90;;;4.10;99.90;;;;;;4979032;28;20031;-93
2024/02/24 04:23:26;;;;;;;1.70;1.60;;;4.10;99.90;;;;;;4988456;28;20118;-91
2024/02/24 04:25:52;;;;;;;1.63;1.20;;;4.10;99.90;;;;;;4976198;28;20049;-94
2024/02/24 04:28:18;;;;;;;2.42;1.80;;;4.00;99.90;;;;;;5004506;28;20033;-92
2024/02/24 04:30:44;;;;;;;1.05;0.95;;;4.00;99.90;;;;;;4981895;28;20110;-91
2024/02/24 04:33:10;;;;;;;1.65;1.55;;;4.00;99.90;;;;;;4993496;28;20055;-93
2024/02/24 04:35:35;;;;;;;1.52;1.20;;;4.00;99.90;;;;;;4983611;28;20055;-92
2024/02/24 04:38:05;;;;;;;1.50;1.25;;;4.00;99.90;;;;;;4990459;28;20113;-91
2024/02/24 04:40:35;;;;;;;1.60;1.30;;;3.90;99.90;;;;;;4989452;28;20030;-92
2024/02/24 04:43:02;;;;;;;1.00;1.00;;;3.90;99.90;;;;;;4999978;28;20023;-92
2024/02/24 04:45:27;;;;;;;1.95;1.15;;;3.90;99.90;;;;;;4988789;28;20031;-92
2024/02/24 04:47:53;;;;;;;1.35;0.95;;;3.90;99.90;;;;;;5026506;28;20022;-92
2024/02/24 04:50:19;;;;;;;1.60;1.50;;;3.80;99.90;;;;;;4982348;28;20106;-93
2024/02/24 04:52:45;;;;;;;1.17;0.98;;;3.80;99.90;;;;;;5020483;28;20542;-91
2024/02/24 04:55:10;;;;;;;2.10;1.30;;;3.70;99.90;;;;;;4991865;28;20035;-93
2024/02/24 04:57:36;;;;;;;1.42;1.30;;;3.60;99.90;;;;;;4977300;28;20600;-92
2024/02/24 05:00:03;;;;;;;2.13;1.98;;;3.50;99.90;;;;;;4982953;28;20015;-92
2024/02/24 05:02:29;;;;;;;2.53;1.48;;;3.50;99.90;;;;;;4987912;28;20043;-91
2024/02/24 05:04:55;;;;;;;1.58;1.13;;;3.50;99.90;;;;;;4985548;28;20181;-93
2024/02/24 05:07:20;;;;;;;1.98;1.20;;;3.40;99.90;;;;;;4991623;28;20038;-92
2024/02/24 05:09:46;;;;;;;1.63;1.52;;;3.40;99.90;;;;;;4976767;28;20031;-93
2024/02/24 05:12:12;;;;;;;1.92;1.33;;;3.30;99.90;;;;;;4969568;28;20023;-92
2024/02/24 05:14:37;;;;;;;2.45;1.25;;;3.20;99.90;;;;;;5011318;28;20074;-92
2024/02/24 05:17:07;;;;;;;1.17;1.17;;;3.10;99.90;;;;;;4985324;28;20038;-91
2024/02/24 05:19:33;;;;;;;1.60;1.50;;;3.10;99.90;;;;;;4992170;28;20083;-92
2024/02/24 05:21:58;;;;;;;0.95;0.90;;;3.10;99.90;;;;;;4977614;28;20073;-94
2024/02/24 05:24:24;;;;;;;1.98;1.40;;;3.20;99.90;;;;;;4977419;28;20027;-94
2024/02/24 05:26:50;;;;;;;1.67;1.27;;;3.20;99.90;;;;;;5033445;28;20027;-92
2024/02/24 05:29:16;;;;;;;1.85;1.35;;;3.30;99.90;;;;;;4978039;28;20061;-92
2024/02/24 05:31:42;;;;;;;2.13;2.03;;;3.30;99.90;;;;;;4982852;28;20241;-92
2024/02/24 05:34:07;;;;;;;2.33;1.60;;;3.30;99.90;;;;;;5076287;28;20447;-92
2024/02/24 05:36:35;;;;;;;1.92;1.63;;;3.30;99.90;;;;;;4979522;28;20027;-93
2024/02/24 05:39:01;;;;;;;0.80;0.73;;;3.40;99.90;;;;;;5005147;28;20023;-92
2024/02/24 05:41:26;;;;;;;2.78;1.60;;;3.40;99.90;;;;;;4983660;28;20145;-93
2024/02/24 05:43:52;;;;;;;1.90;1.80;;;3.30;99.90;;;;;;4994417;28;20054;-92
2024/02/24 05:46:18;;;;;;;1.95;1.85;;;3.30;99.90;;;;;;4982016;28;20045;-91
2024/02/24 05:48:45;;;;;;;1.38;1.27;;;3.20;99.90;;;;;;4987513;28;20027;-92
2024/02/24 05:51:11;;;;;;;1.60;1.33;;;3.20;99.90;;;;;;5052093;28;20034;-93
2024/02/24 05:53:38;;;;;;;1.55;1.45;;;3.10;99.90;;;;;;4982053;28;20027;-92
2024/02/24 05:56:05;;;;;;;2.47;1.67;;;3.10;99.90;;;;;;4979662;28;20439;-92
2024/02/24 05:58:32;;;;;;;1.48;1.33;;;3.20;99.90;;;;;;4986971;28;20060;-92
2024/02/24 06:00:58;;;;;;;1.23;1.13;;;3.10;99.90;;;;;;4992212;28;20027;-92
2024/02/24 06:03:25;;;;;;;1.30;1.17;;;3.10;99.90;;;;;;4988635;28;20072;-92
2024/02/24 06:05:51;;;;;;;2.58;2.35;;;3.10;99.90;;;;;;4982881;28;20021;-93
2024/02/24 06:08:17;;;;;;;2.95;1.80;;;3.10;99.90;;;;;;4982446;28;20065;-92
2024/02/24 06:10:43;;;;;;;4.35;1.13;;;3.10;99.90;;;;;;4991907;28;20030;-92
2024/02/24 06:13:09;;;;;;;4.15;1.30;;;3.20;99.90;;;;;;5004162;28;20038;-92
2024/02/24 06:15:35;;;;;;;1.95;1.27;;;3.10;99.90;;;;;;4981817;28;20084;-92
2024/02/24 06:18:01;;;;;;;1.80;1.15;;;3.10;99.90;;;;;;5030182;28;20027;-93
2024/02/24 06:20:27;;;;;;;2.13;1.58;;;3.20;99.90;;;;;;4984740;28;20049;-91
2024/02/24 06:23:01;;;;;;;4.85;1.10;;;3.30;99.90;;;;;;5022921;28;20025;-93
2024/02/24 06:25:30;;;;;;;3.05;1.70;;;3.30;99.90;;;;;;5005823;28;20092;-92
2024/02/24 06:28:00;;;;;;;1.20;1.08;;;3.30;99.90;;;;;;4980155;28;20064;-91
2024/02/24 06:30:38;;;;;;;1.42;0.98;;;3.40;99.90;;;;;;4980191;28;20027;-93
2024/02/24 06:39:34;;;;;;;2.00;1.67;;;3.50;99.90;;;;;;5060799;28;20040;-95
2024/02/24 06:42:24;;;;;;;1.85;1.73;;;3.50;99.90;;;;;;5064519;28;20111;-92
2024/02/24 06:45:23;;;;;;;2.17;1.73;;;3.50;99.90;;;;;;5051630;28;20090;-93
2024/02/24 06:47:52;;;;;;;3.65;2.15;;;3.60;99.90;;;;;;4983708;28;20030;-94
2024/02/24 06:50:18;;;;;;;5.25;4.75;;;3.60;99.90;;;;;;5050684;28;20041;-93
2024/02/24 06:52:44;;;;;;;8.30;7.45;;;3.70;99.90;;;;;;4993245;28;20117;-96
2024/02/24 06:55:10;;;;;;;4.25;2.10;;;3.60;99.90;;;;;;4985963;28;20066;-92
2024/02/24 06:57:36;;;;;;;3.13;2.55;;;3.60;99.90;;;;;;4995683;28;20026;-94
2024/02/24 07:00:52;;;;;;;1.70;1.60;;;3.60;99.90;;;;;;4989087;28;20019;-94
2024/02/24 07:04:02;;;;;;;2.47;1.98;;;3.70;99.90;;;;;;4986022;28;20030;-94
2024/02/24 07:06:31;;;;;;;3.25;2.25;;;3.80;99.90;;;;;;4982054;28;20094;-95
2024/02/24 07:08:57;;;;;;;4.45;2.08;;;3.90;99.90;;;;;;4985141;28;20188;-94
2024/02/24 07:11:27;;;;;;;3.33;2.13;;;4.00;99.90;;;;;;4981273;28;20031;-94
2024/02/24 07:13:56;;;;;;;2.40;1.77;;;4.10;99.90;;;;;;4972226;28;20031;-93
2024/02/24 07:16:22;;;;;;;3.40;1.65;;;4.40;99.90;;;;;;4986606;28;20034;-94
2024/02/24 07:18:47;;;;;;;1.92;1.30;;;4.40;99.90;;;;;;4979478;28;20038;-92
2024/02/24 07:21:13;;;;;;;1.75;1.20;;;4.50;99.90;;;;;;5002795;28;20024;-93
2024/02/24 07:23:43;;;;;;;2.10;1.98;;;4.50;99.90;;;;;;5020457;28;20023;-94
2024/02/24 07:26:09;;;;;;;2.90;1.73;;;4.60;99.90;;;;;;4980993;28;20110;-95
2024/02/24 07:28:35;;;;;;;4.07;1.73;;;4.70;99.90;;;;;;5037119;23;20050;-89
2024/02/24 07:31:01;;;;;;;2.10;2.00;;;4.70;99.90;;;;;;5006316;28;20030;-88
2024/02/24 07:33:27;;;;;;;1.65;1.35;;;4.80;99.90;;;;;;4990412;28;20081;-87
2024/02/24 07:35:53;;;;;;;3.83;1.27;;;4.80;99.90;;;;;;4987456;28;20023;-88
2024/02/24 07:38:19;;;;;;;2.67;1.50;;;4.90;99.90;;;;;;4969948;28;20179;-89
2024/02/24 07:40:47;;;;;;;1.45;1.30;;;5.00;99.90;;;;;;5011143;28;20473;-90
2024/02/24 07:43:13;;;;;;;2.20;1.42;;;5.10;99.90;;;;;;4993095;28;20027;-89
2024/02/24 07:45:38;;;;;;;2.17;1.83;;;5.10;99.90;;;;;;4961709;28;20023;-89
2024/02/24 07:48:08;;;;;;;1.38;1.17;;;5.20;99.90;;;;;;4990364;28;20110;-89
2024/02/24 07:50:34;;;;;;;2.60;1.63;;;5.30;99.90;;;;;;5036518;28;20033;-88
2024/02/24 07:53:00;;;;;;;1.73;1.63;;;5.40;99.90;;;;;;4991251;28;20031;-88
2024/02/24 07:55:25;;;;;;;1.55;1.45;;;5.40;99.90;;;;;;4972186;28;20412;-88
2024/02/24 07:57:51;;;;;;;1.52;1.42;;;5.50;99.90;;;;;;4978924;28;20030;-90
2024/02/24 08:00:17;;;;;;;1.23;1.10;;;5.60;99.90;;;;;;4980685;28;20034;-91
2024/02/24 08:02:43;;;;;;;1.98;1.00;;;5.60;99.90;;;;;;4987140;28;20022;-91
2024/02/24 08:05:08;;;;;;;1.73;1.10;;;5.70;99.90;;;;;;4990101;28;20038;-91
2024/02/24 08:07:34;;;;;;;1.10;1.00;;;5.90;99.90;;;;;;4985106;28;20031;-91
2024/02/24 08:10:00;;;;;;;2.00;1.40;;;6.00;99.90;;;;;;4995305;28;20031;-91
2024/02/24 08:12:26;;;;;;;2.20;1.95;;;6.00;99.90;;;;;;4970311;28;20031;-91
2024/02/24 08:14:51;;;;;;;1.70;1.33;;;6.00;99.90;;;;;;4990800;28;20109;-90
2024/02/24 08:17:17;;;;;;;1.55;1.45;;;6.00;99.90;;;;;;4969684;28;20069;-90
2024/02/24 08:19:43;;;;;;;1.95;0.82;;;6.00;99.90;;;;;;4982860;28;20038;-89
2024/02/24 08:22:08;;;;;;;2.20;1.00;;;5.90;99.90;;;;;;4972958;28;20023;-91
2024/02/24 08:24:34;;;;;;;1.77;0.90;;;5.90;99.90;;;;;;4978799;28;20027;-91
2024/02/24 08:27:01;;;;;;;2.88;2.67;;;5.90;99.90;;;;;;4990584;28;20217;-92
2024/02/24 08:29:26;;;;;;;1.58;1.00;;;5.90;99.90;;;;;;4968009;28;20051;-88
2024/02/24 08:31:53;;;;;;;2.70;1.17;;;5.90;99.90;;;;;;4992127;28;20026;-90
2024/02/24 08:34:19;;;;;;;1.95;1.30;;;5.80;99.90;;;;;;4951828;28;20076;-89
2024/02/24 08:36:45;;;;;;;1.20;1.10;;;5.80;99.90;;;;;;4985976;28;20026;-90
2024/02/24 08:39:11;;;;;;;1.42;1.33;;;5.90;99.90;;;;;;4969900;28;20037;-90
2024/02/24 08:41:37;;;;;;;1.85;1.40;;;5.90;99.90;;;;;;4965182;28;20027;-91
2024/02/24 08:44:03;;;;;;;1.30;1.10;;;5.70;95.70;;;;;;4960283;28;20160;-91
2024/02/24 08:46:29;;;;;;;2.30;1.48;;;5.60;95.00;;;;;;4968851;28;20030;-90
2024/02/24 08:48:56;;;;;;;1.88;1.25;;;5.50;94.30;;;;;;4985171;28;20027;-90
2024/02/24 08:51:22;;;;;;;1.25;1.25;;;5.50;94.80;;;;;;4992298;28;20076;-89
2024/02/24 08:53:48;;;;;;;2.15;1.60;;;5.50;95.00;;;;;;4960241;28;20493;-90
2024/02/24 08:56:21;;;;;;;2.38;1.20;;;5.60;94.80;;;;;;4974004;28;20049;-89
2024/02/24 08:58:47;;;;;;;1.30;1.10;;;5.70;97.30;;;;;;4973538;28;20037;-89
2024/02/24 09:01:18;;;;;;;1.17;1.08;;;6.00;95.60;;;;;;4967262;28;20405;-91
2024/02/24 09:03:44;;;;;;;1.42;1.23;;;6.10;96.00;;;;;;4985448;28;20086;-90
2024/02/24 09:06:09;;;;;;;2.13;1.67;;;6.40;96.30;;;;;;4983177;28;20034;-89
2024/02/24 09:08:37;;;;;;;2.17;1.58;;;6.40;93.70;;;;;;4959967;28;20031;-88
2024/02/24 09:11:03;;;;;;;1.23;1.13;;;6.50;95.70;;;;;;4978068;28;20027;-89
2024/02/24 09:13:29;;;;;;;2.95;2.78;;;6.70;96.40;;;;;;4978569;28;20400;-89
2024/02/24 09:15:54;;;;;;;1.42;0.80;;;6.70;93.90;;;;;;5012712;28;20052;-89
2024/02/24 09:18:20;;;;;;;0.98;0.85;;;6.80;88.50;;;;;;4968489;28;20030;-88
2024/02/24 09:20:46;;;;;;;2.50;1.30;;;6.80;88.50;;;;;;5013722;28;20029;-89
2024/02/24 09:23:12;;;;;;;1.30;1.13;;;6.90;90.50;;;;;;4979188;28;20026;-90
2024/02/24 09:25:37;;;;;;;2.30;0.93;;;7.00;87.30;;;;;;4971433;28;20074;-88
2024/02/24 09:28:03;;;;;;;2.72;1.38;;;6.80;86.40;;;;;;5031502;28;20749;-88
2024/02/24 09:30:29;;;;;;;1.85;1.42;;;6.80;89.30;;;;;;4984257;28;20105;-88
2024/02/24 09:32:56;;;;;;;1.40;1.30;;;6.70;89.40;;;;;;4983763;28;20039;-89
2024/02/24 09:35:21;;;;;;;1.42;1.33;;;6.70;87.00;;;;;;4974289;28;20027;-87
2024/02/24 09:37:47;;;;;;;1.90;0.90;;;6.80;85.20;;;;;;4965366;28;20035;-88
2024/02/24 09:40:14;;;;;;;0.95;0.90;;;6.80;81.00;;;;;;4984744;28;20029;-88
2024/02/24 09:42:40;;;;;;;1.90;1.27;;;6.90;85.00;;;;;;4985989;28;20049;-89
2024/02/24 09:45:12;;;;;;;1.83;1.38;;;7.00;84.10;;;;;;4990745;28;20494;-88
2024/02/24 09:47:39;;;;;;;1.50;0.85;;;7.20;81.40;;;;;;4971266;28;20098;-88
2024/02/24 09:50:06;;;;;;;2.22;1.55;;;7.20;79.10;;;;;;4978366;28;20054;-88
2024/02/24 09:52:32;;;;;;;3.40;0.80;;;7.20;81.30;;;;;;4955991;28;20024;-88
2024/02/24 09:54:57;;;;;;;1.92;0.75;;;7.40;75.70;;;;;;4965991;28;20392;-89
2024/02/24 09:57:27;;;;;;;2.22;1.17;;;7.50;77.50;;;;;;5004327;28;20071;-88
2024/02/24 09:59:54;;;;;;;1.25;0.88;;;7.70;76.30;;;;;;4976249;28;20022;-88
2024/02/24 10:02:19;;;;;;;2.38;1.02;;;7.70;76.30;;;;;;5013176;28;20024;-89
2024/02/24 10:04:47;;;;;;;0.95;0.95;;;7.70;75.20;;;;;;5065413;28;20021;-89
2024/02/24 10:07:12;;;;;;;2.20;1.17;;;7.60;76.20;;;;;;4967640;28;20035;-89
2024/02/24 10:09:38;;;;;;;1.40;1.30;;;7.40;75.10;;;;;;4978541;28;20023;-89
2024/02/24 10:12:05;;;;;;;2.67;1.15;;;7.40;76.50;;;;;;4978179;28;20477;-88
2024/02/24 10:14:33;;;;;;;1.70;1.50;;;7.50;76.40;;;;;;4980627;28;20031;-88
2024/02/24 10:17:00;;;;;;;2.97;2.80;;;7.50;76.30;;;;;;5061949;28;20827;-88
2024/02/24 10:19:30;;;;;;;1.38;1.27;;;7.50;76.90;;;;;;4971784;28;20102;-88
2024/02/24 10:22:01;;;;;;;0.93;0.70;;;7.50;77.70;;;;;;4961461;28;20035;-88
2024/02/24 10:24:27;;;;;;;1.65;0.88;;;7.60;77.50;;;;;;4960646;28;20023;-89
2024/02/24 10:26:53;;;;;;;0.80;0.80;;;7.50;73.30;;;;;;4977093;28;20516;-88
2024/02/24 10:29:20;;;;;;;1.70;1.60;;;7.60;70.70;;;;;;4972927;28;20038;-88
2024/02/24 10:31:47;;;;;;;3.83;1.48;;;7.90;69.40;;;;;;5019451;28;20026;-88
2024/02/24 10:34:13;;;;;;;0.95;0.90;;;7.90;67.80;;;;;;5001492;28;20031;-88
2024/02/24 10:36:39;;;;;;;2.17;1.38;;;7.90;64.40;;;;;;4970537;28;20113;-88
2024/02/24 10:39:06;;;;;;;5.28;1.20;;;7.80;68.00;;;;;;5030732;28;20035;-88
2024/02/24 10:41:33;;;;;;;1.85;1.08;;;7.90;67.90;;;;;;5023474;28;20026;-88
2024/02/24 10:44:00;;;;;;;1.33;1.15;;;8.00;65.70;;;;;;4975480;28;20088;-89
2024/02/24 10:46:25;;;;;;;1.33;1.25;;;7.90;66.60;;;;;;4958958;28;20018;-88
2024/02/24 10:48:51;;;;;;;1.95;1.77;;;7.90;68.00;;;;;;4978747;28;20049;-89
2024/02/24 10:51:17;;;;;;;1.95;1.35;;;7.80;64.30;;;;;;4978131;28;20031;-87
2024/02/24 10:53:49;;;;;;;2.65;1.35;;;8.00;67.10;;;;;;5008422;28;20054;-86
2024/02/24 10:56:19;;;;;;;1.80;1.05;;;8.20;64.70;;;;;;4973404;28;20035;-85
2024/02/24 10:58:46;;;;;;;2.95;0.80;;;8.50;64.50;;;;;;4975089;28;20031;-86
2024/02/24 11:01:11;;;;;;;3.33;0.93;;;8.50;61.70;;;;;;4976789;28;20083;-84
2024/02/24 11:03:37;;;;;;;3.97;1.20;;;8.40;61.80;;;;;;4972996;28;20552;-85
2024/02/24 11:06:03;;;;;;;2.30;1.98;;;8.30;63.10;;;;;;4975480;28;20055;-85
2024/02/24 11:08:45;;;;;;;1.85;1.02;;;8.30;63.90;;;;;;4970356;28;20093;-86
2024/02/24 11:11:13;;;;;;;3.38;3.13;;;8.20;62.50;;;;;;4973490;28;20221;-82
2024/02/24 11:13:48;;;;;;;1.60;1.50;;;8.20;62.20;;;;;;4976888;28;20027;-84
2024/02/24 11:16:18;;;;;;;1.75;1.50;;;8.30;62.50;;;;;;4972345;28;20060;-85
2024/02/24 11:18:50;;;;;;;3.20;3.00;;;8.30;62.50;;;;;;4976102;28;20374;-87
2024/02/24 11:22:00;;;;;;;3.63;1.85;;;8.40;62.00;;;;;;4989071;28;20031;-85
2024/02/24 11:24:31;;;;;;;4.10;1.25;;;8.40;60.70;;;;;;4987432;28;20765;-83
2024/02/24 11:26:56;;;;;;;2.15;1.50;;;8.60;60.30;;;;;;4973576;28;20027;-86
2024/02/24 11:29:28;;;;;;;2.08;1.88;;;8.80;61.30;;;;;;4980059;28;20038;-84
2024/02/24 11:32:13;;;;;;;3.78;3.05;;;9.00;61.70;;;;;;4965044;28;20186;-84
2024/02/24 11:34:42;;;;;;;2.30;1.23;;;9.10;59.70;;;;;;4975805;28;20558;-80
2024/02/24 11:37:48;;;;;;;1.77;1.65;;;9.00;58.60;;;;;;4964375;23;20066;-84
2024/02/24 11:40:35;;;;;;;2.80;2.47;;;8.70;59.80;;;;;;4975917;28;20399;-86
2024/02/24 11:43:01;;;;;;;3.60;1.10;;;8.70;61.40;;;;;;4988788;28;20022;-82
2024/02/24 11:46:11;;;;;;;;;;;;;;;;;;;;;
2024/02/24 11:48:55;;;;;;;2.15;1.25;;;9.00;59.00;;;;;;4965279;28;20126;-83
2024/02/24 11:51:24;;;;;;;2.10;1.17;;;9.20;56.50;;;;;;4974661;28;20031;-84
2024/02/24 11:53:52;;;;;;;2.15;1.60;;;9.40;57.30;;;;;;4969639;28;20028;-85
2024/02/24 11:56:17;;;;;;;3.38;1.60;;;9.30;56.60;;;;;;4984340;28;20130;-85
2024/02/24 11:58:44;;;;;;;2.45;1.10;;;9.20;56.90;;;;;;4971759;28;20047;-84
2024/02/24 12:01:15;;;;;;;2.35;2.05;;;9.10;59.70;;;;;;4976533;28;20025;-85
2024/02/24 12:03:53;;;;;;;2.45;1.00;;;9.20;59.10;;;;;;4966464;28;20055;-85
2024/02/24 12:06:20;;;;;;;2.60;0.73;;;9.00;58.60;;;;;;4972540;28;20057;-84
2024/02/24 12:08:48;;;;;;;2.22;1.05;;;8.90;57.30;;;;;;4970824;28;20049;-84
2024/02/24 12:11:14;;;;;;;2.53;1.33;;;8.80;58.40;;;;;;4972331;28;20019;-84
2024/02/24 12:13:40;;;;;;;2.20;1.23;;;8.90;58.50;;;;;;4976259;28;20038;-87
2024/02/24 12:16:06;;;;;;;1.77;0.75;;;8.90;56.80;;;;;;4980008;28;20030;-86
2024/02/24 12:18:33;;;;;;;1.85;1.02;;;8.70;55.00;;;;;;4977302;28;20045;-90
2024/02/24 12:20:59;;;;;;;3.42;1.33;;;8.90;55.10;;;;;;4995930;28;20044;-88
2024/02/24 12:23:28;;;;;;;1.88;1.27;;;9.10;55.20;;;;;;4976308;28;20022;-88
2024/02/24 12:25:54;;;;;;;2.38;1.17;;;9.40;53.90;;;;;;4995261;28;20031;-88
2024/02/24 12:28:20;;;;;;;1.42;1.33;;;9.80;52.70;;;;;;4992270;28;20027;-88
2024/02/24 12:30:48;;;;;;;2.97;0.95;;;10.80;51.90;;;;;;4991167;28;20038;-86
2024/02/24 12:33:16;;;;;;;1.30;0.93;;;11.70;47.40;;;;;;4979106;28;20044;-89
2024/02/24 12:35:42;;;;;;;1.88;1.25;;;11.50;47.10;;;;;;4980957;28;20422;-89
2024/02/24 12:38:17;;;;;;;1.30;0.82;;;10.80;50.40;;;;;;4982797;28;20061;-87
2024/02/24 12:40:46;;;;;;;0.98;0.98;;;10.40;50.00;;;;;;4990789;28;20057;-87
2024/02/24 12:43:11;;;;;;;2.97;1.35;;;10.10;49.70;;;;;;4978099;28;20118;-83
2024/02/24 12:45:38;;;;;;;1.02;0.93;;;9.90;52.90;;;;;;4972913;28;20057;-83
2024/02/24 12:48:05;;;;;;;1.10;0.98;;;9.80;51.80;;;;;;4979502;28;20023;-86
2024/02/24 12:50:31;;;;;;;3.40;1.00;;;10.00;52.80;;;;;;4978618;28;20027;-89
2024/02/24 12:52:57;;;;;;;5.72;1.40;;;10.00;51.00;;;;;;4965368;28;20055;-86
2024/02/24 12:55:23;;;;;;;5.22;1.73;;;9.90;50.90;;;;;;4971979;28;20031;-84
2024/02/24 12:57:48;;;;;;;1.33;0.90;;;9.70;50.00;;;;;;4974240;28;20062;-85
2024/02/24 13:00:14;;;;;;;4.13;1.02;;;9.60;51.30;;;;;;4990984;28;20047;-86
2024/02/24 13:02:40;;;;;;;1.88;1.02;;;9.80;50.10;;;;;;5011812;28;20056;-87
2024/02/24 13:05:07;;;;;;;1.63;0.85;;;9.80;50.00;;;;;;4999388;28;20025;-88
2024/02/24 13:07:33;;;;;;;3.38;1.13;;;10.30;48.30;;;;;;5042862;28;20029;-87